createdAt,value
2017-12-31T00:00:07.298Z,2.89
2017-12-31T00:01:07.309Z,2.81
2017-12-31T00:02:07.313Z,2.82
2017-12-31T00:03:07.327Z,2.78
2017-12-31T00:04:07.329Z,2.77
2017-12-31T00:05:07.338Z,2.77
2017-12-31T00:06:07.346Z,2.84
2017-12-31T00:07:07.355Z,2.84
2017-12-31T00:08:07.363Z,2.75
2017-12-31T00:09:07.370Z,2.84
2017-12-31T00:10:07.371Z,2.77
2017-12-31T00:11:07.393Z,2.84
2017-12-31T00:12:07.394Z,2.90
2017-12-31T00:13:07.400Z,2.79
2017-12-31T00:14:07.401Z,2.90
2017-12-31T00:15:07.414Z,2.99
2017-12-31T00:16:07.420Z,3.05
2017-12-31T00:17:07.433Z,3.06
2017-12-31T00:18:07.432Z,3.02
2017-12-31T00:19:07.436Z,3.00
2017-12-31T00:20:07.444Z,2.90
2017-12-31T00:21:07.457Z,2.90
2017-12-31T00:22:07.457Z,2.95
2017-12-31T00:23:07.473Z,2.78
2017-12-31T00:24:07.478Z,2.78
2017-12-31T00:25:07.485Z,2.74
2017-12-31T00:26:07.491Z,2.77
2017-12-31T00:27:07.496Z,2.67
2017-12-31T00:28:07.502Z,2.63
2017-12-31T00:29:07.515Z,2.64
2017-12-31T00:30:07.521Z,2.63
2017-12-31T00:31:07.523Z,2.69
2017-12-31T00:32:07.535Z,2.71
2017-12-31T00:33:07.544Z,2.77
2017-12-31T00:34:07.549Z,2.78
2017-12-31T00:35:07.553Z,2.72
2017-12-31T00:36:07.566Z,2.75
2017-12-31T00:37:07.567Z,2.75
2017-12-31T00:38:07.581Z,2.67
2017-12-31T00:39:07.588Z,2.69
2017-12-31T00:40:07.593Z,2.60
2017-12-31T00:41:07.601Z,2.66
2017-12-31T00:42:07.608Z,2.63
2017-12-31T00:43:07.616Z,2.66
2017-12-31T00:44:07.617Z,2.57
2017-12-31T00:45:07.625Z,2.56
2017-12-31T00:46:07.631Z,2.66
2017-12-31T00:47:07.643Z,2.54
2017-12-31T00:48:07.651Z,2.63
2017-12-31T00:49:07.654Z,2.54
2017-12-31T00:50:07.664Z,2.59
2017-12-31T00:51:07.669Z,2.59
2017-12-31T00:52:07.681Z,2.61
2017-12-31T00:53:07.689Z,2.52
2017-12-31T00:54:07.696Z,2.64
2017-12-31T00:55:07.703Z,2.63
2017-12-31T00:56:07.709Z,2.53
2017-12-31T00:57:07.712Z,2.64
2017-12-31T00:58:07.719Z,2.56
2017-12-31T00:59:07.734Z,2.57
2017-12-31T01:00:07.736Z,2.64
2017-12-31T01:01:07.742Z,2.71
2017-12-31T01:02:07.749Z,2.71
2017-12-31T01:03:07.756Z,2.74
2017-12-31T01:04:07.770Z,2.78
2017-12-31T01:05:07.773Z,2.79
2017-12-31T01:06:07.786Z,2.78
2017-12-31T01:07:07.785Z,2.75
2017-12-31T01:08:07.795Z,2.82
2017-12-31T01:09:07.807Z,2.79
2017-12-31T01:10:07.814Z,2.79
2017-12-31T01:11:07.821Z,2.78
2017-12-31T01:12:07.831Z,2.71
2017-12-31T01:13:07.837Z,2.81
2017-12-31T01:14:07.838Z,2.75
2017-12-31T01:15:07.845Z,2.75
2017-12-31T01:16:07.851Z,2.77
2017-12-31T01:17:07.860Z,2.77
2017-12-31T01:18:07.866Z,2.75
2017-12-31T01:19:07.912Z,2.75
2017-12-31T01:20:07.881Z,2.66
2017-12-31T01:21:07.895Z,2.64
2017-12-31T01:22:07.897Z,2.66
2017-12-31T01:23:07.909Z,2.66
2017-12-31T01:24:07.911Z,2.63
2017-12-31T01:25:07.925Z,2.61
2017-12-31T01:26:07.931Z,2.61
2017-12-31T01:27:07.933Z,2.59
2017-12-31T01:28:07.946Z,2.63
2017-12-31T01:29:07.948Z,2.60
2017-12-31T01:30:07.954Z,2.53
2017-12-31T01:31:07.970Z,2.49
2017-12-31T01:32:07.975Z,2.48
2017-12-31T01:33:07.983Z,2.59
2017-12-31T01:34:07.991Z,2.46
2017-12-31T01:35:07.991Z,2.60
2017-12-31T01:36:07.998Z,2.56
2017-12-31T01:37:08.012Z,2.60
2017-12-31T01:38:08.019Z,2.56
2017-12-31T01:39:08.025Z,2.54
2017-12-31T01:40:08.030Z,2.45
2017-12-31T01:41:08.046Z,2.46
2017-12-31T01:42:08.041Z,2.53
2017-12-31T01:43:08.056Z,2.53
2017-12-31T01:44:08.061Z,2.67
2017-12-31T01:45:08.070Z,2.66
2017-12-31T01:46:08.076Z,2.74
2017-12-31T01:47:08.085Z,2.66
2017-12-31T01:48:08.091Z,2.49
2017-12-31T01:49:08.099Z,2.60
2017-12-31T01:50:08.104Z,2.72
2017-12-31T01:51:08.113Z,2.71
2017-12-31T01:52:08.114Z,2.79
2017-12-31T01:53:08.128Z,2.75
2017-12-31T01:54:08.133Z,2.79
2017-12-31T01:55:08.145Z,2.82
2017-12-31T01:56:08.150Z,2.89
2017-12-31T01:57:08.150Z,2.96
2017-12-31T01:58:08.157Z,2.92
2017-12-31T01:59:08.164Z,2.85
2017-12-31T02:00:08.174Z,2.79
2017-12-31T02:01:08.185Z,2.74
2017-12-31T02:02:08.193Z,2.79
2017-12-31T02:03:08.198Z,2.72
2017-12-31T02:04:08.200Z,2.67
2017-12-31T02:05:08.212Z,2.69
2017-12-31T02:06:08.223Z,2.61
2017-12-31T02:07:08.221Z,2.64
2017-12-31T02:08:08.228Z,2.66
2017-12-31T02:09:08.240Z,2.66
2017-12-31T02:10:08.248Z,2.60
2017-12-31T02:11:08.249Z,2.71
2017-12-31T02:12:08.261Z,2.60
2017-12-31T02:13:08.269Z,2.57
2017-12-31T02:14:08.270Z,2.60
2017-12-31T02:15:08.284Z,2.48
2017-12-31T02:16:08.285Z,2.48
2017-12-31T02:17:08.298Z,2.54
2017-12-31T02:18:08.299Z,2.56
2017-12-31T02:19:08.312Z,2.60
2017-12-31T02:20:08.315Z,2.53
2017-12-31T02:21:08.328Z,2.60
2017-12-31T02:22:08.330Z,2.59
2017-12-31T02:23:08.341Z,2.57
2017-12-31T02:24:08.344Z,2.45
2017-12-31T02:25:08.357Z,2.56
2017-12-31T02:26:08.363Z,2.56
2017-12-31T02:27:08.365Z,2.48
2017-12-31T02:28:08.375Z,2.43
2017-12-31T02:29:08.387Z,2.43
2017-12-31T02:30:08.385Z,2.38
2017-12-31T02:31:08.396Z,2.39
2017-12-31T02:32:08.406Z,2.43
2017-12-31T02:33:08.414Z,2.41
2017-12-31T02:34:08.420Z,2.38
2017-12-31T02:35:08.421Z,2.46
2017-12-31T02:36:08.436Z,2.42
2017-12-31T02:37:08.442Z,2.34
2017-12-31T02:38:08.448Z,2.39
2017-12-31T02:39:08.456Z,2.27
2017-12-31T02:40:08.457Z,2.34
2017-12-31T02:41:08.470Z,2.27
2017-12-31T02:42:08.470Z,2.28
2017-12-31T02:43:08.491Z,2.27
2017-12-31T02:44:08.493Z,2.28
2017-12-31T02:45:08.494Z,2.27
2017-12-31T02:46:08.499Z,2.30
2017-12-31T02:47:08.507Z,2.23
2017-12-31T02:48:08.521Z,2.25
2017-12-31T02:49:08.526Z,2.28
2017-12-31T02:50:08.528Z,2.27
2017-12-31T02:51:08.544Z,2.28
2017-12-31T02:52:08.546Z,2.30
2017-12-31T02:53:08.556Z,2.35
2017-12-31T02:54:08.622Z,2.36
2017-12-31T02:55:08.566Z,2.30
2017-12-31T02:56:08.573Z,2.25
2017-12-31T02:57:08.580Z,2.30
2017-12-31T02:58:08.592Z,2.28
2017-12-31T02:59:08.593Z,2.23
2017-12-31T03:00:08.611Z,2.23
2017-12-31T03:01:08.607Z,2.14
2017-12-31T03:02:08.613Z,2.21
2017-12-31T03:03:08.622Z,2.16
2017-12-31T03:04:08.636Z,2.17
2017-12-31T03:05:08.642Z,2.16
2017-12-31T03:06:08.643Z,2.17
2017-12-31T03:07:08.651Z,2.18
2017-12-31T03:08:08.669Z,2.09
2017-12-31T03:09:08.674Z,2.10
2017-12-31T03:10:08.673Z,2.10
2017-12-31T03:11:08.685Z,2.16
2017-12-31T03:12:08.689Z,2.14
2017-12-31T03:13:08.694Z,2.20
2017-12-31T03:14:08.700Z,2.20
2017-12-31T03:15:08.714Z,2.18
2017-12-31T03:16:08.720Z,2.12
2017-12-31T03:17:08.723Z,2.12
2017-12-31T03:18:08.731Z,2.16
2017-12-31T03:19:08.738Z,2.20
2017-12-31T03:20:08.749Z,2.14
2017-12-31T03:21:08.753Z,2.24
2017-12-31T03:22:08.764Z,2.18
2017-12-31T03:23:08.766Z,2.12
2017-12-31T03:24:08.778Z,2.14
2017-12-31T03:25:08.781Z,2.27
2017-12-31T03:26:08.795Z,2.23
2017-12-31T03:27:08.801Z,2.24
2017-12-31T03:28:08.809Z,2.14
2017-12-31T03:29:08.815Z,2.12
2017-12-31T03:30:08.822Z,2.14
2017-12-31T03:31:08.825Z,2.14
2017-12-31T03:32:08.835Z,2.24
2017-12-31T03:33:08.840Z,2.17
2017-12-31T03:34:08.851Z,2.12
2017-12-31T03:35:08.859Z,2.12
2017-12-31T03:36:08.862Z,2.17
2017-12-31T03:37:08.875Z,2.16
2017-12-31T03:38:08.876Z,2.03
2017-12-31T03:39:08.883Z,2.18
2017-12-31T03:40:08.891Z,2.12
2017-12-31T03:41:08.903Z,2.12
2017-12-31T03:42:08.910Z,2.05
2017-12-31T03:43:08.920Z,2.16
2017-12-31T03:44:08.925Z,2.12
2017-12-31T03:45:08.934Z,2.18
2017-12-31T03:46:08.938Z,2.16
2017-12-31T03:47:08.947Z,2.14
2017-12-31T03:48:08.946Z,2.14
2017-12-31T03:49:08.955Z,2.17
2017-12-31T03:50:08.961Z,2.27
2017-12-31T03:51:08.975Z,2.35
2017-12-31T03:52:08.977Z,2.39
2017-12-31T03:53:08.992Z,2.36
2017-12-31T03:54:08.989Z,2.38
2017-12-31T03:55:09.005Z,2.34
2017-12-31T03:56:09.004Z,2.28
2017-12-31T03:57:09.013Z,2.23
2017-12-31T03:58:09.018Z,2.14
2017-12-31T03:59:09.031Z,2.14
2017-12-31T04:00:09.039Z,2.14
2017-12-31T04:01:09.045Z,2.09
2017-12-31T04:02:09.048Z,2.09
2017-12-31T04:03:09.061Z,2.07
2017-12-31T04:04:09.063Z,2.03
2017-12-31T04:05:09.070Z,2.02
2017-12-31T04:06:09.077Z,2.06
2017-12-31T04:07:09.084Z,2.05
2017-12-31T04:08:09.091Z,2.05
2017-12-31T04:09:09.101Z,2.00
2017-12-31T04:10:09.110Z,2.03
2017-12-31T04:11:09.117Z,2.03
2017-12-31T04:12:09.124Z,2.27
2017-12-31T04:13:09.133Z,2.23
2017-12-31T04:14:09.134Z,2.14
2017-12-31T04:15:09.146Z,2.14
2017-12-31T04:16:09.154Z,2.18
2017-12-31T04:17:09.155Z,2.20
2017-12-31T04:18:09.168Z,2.16
2017-12-31T04:19:09.175Z,2.07
2017-12-31T04:20:09.182Z,2.03
2017-12-31T04:21:09.188Z,2.05
2017-12-31T04:22:09.191Z,2.07
2017-12-31T04:23:09.202Z,2.03
2017-12-31T04:24:09.206Z,2.03
2017-12-31T04:25:09.217Z,2.03
2017-12-31T04:26:09.220Z,2.05
2017-12-31T04:27:09.231Z,2.07
2017-12-31T04:28:09.232Z,2.00
2017-12-31T04:29:09.246Z,2.05
2017-12-31T04:30:09.247Z,2.06
2017-12-31T04:31:09.254Z,2.06
2017-12-31T04:32:09.268Z,2.02
2017-12-31T04:33:09.269Z,1.98
2017-12-31T04:34:09.284Z,2.02
2017-12-31T04:35:09.290Z,1.88
2017-12-31T04:36:09.298Z,1.84
2017-12-31T04:37:09.298Z,1.81
2017-12-31T04:38:09.305Z,1.86
2017-12-31T04:39:09.312Z,1.86
2017-12-31T04:40:09.325Z,1.76
2017-12-31T04:41:09.331Z,1.83
2017-12-31T04:42:09.333Z,1.80
2017-12-31T04:43:09.346Z,1.84
2017-12-31T04:44:09.390Z,1.91
2017-12-31T04:45:09.360Z,2.03
2017-12-31T04:46:09.369Z,1.95
2017-12-31T04:47:09.376Z,2.07
2017-12-31T04:48:09.380Z,2.06
2017-12-31T04:49:09.388Z,2.06
2017-12-31T04:50:09.392Z,2.05
2017-12-31T04:51:09.401Z,2.05
2017-12-31T04:52:09.413Z,2.05
2017-12-31T04:53:09.417Z,1.99
2017-12-31T04:54:09.421Z,1.91
2017-12-31T04:55:09.433Z,1.91
2017-12-31T04:56:09.443Z,1.83
2017-12-31T04:57:09.443Z,1.93
2017-12-31T04:58:09.452Z,1.79
2017-12-31T04:59:09.464Z,1.90
2017-12-31T05:00:09.471Z,1.86
2017-12-31T05:01:09.474Z,1.79
2017-12-31T05:02:09.486Z,1.84
2017-12-31T05:03:09.488Z,1.81
2017-12-31T05:04:09.497Z,1.69
2017-12-31T05:05:09.504Z,1.76
2017-12-31T05:06:09.511Z,1.66
2017-12-31T05:07:09.524Z,1.69
2017-12-31T05:08:09.531Z,1.68
2017-12-31T05:09:09.538Z,1.63
2017-12-31T05:10:09.546Z,1.63
2017-12-31T05:11:09.556Z,1.58
2017-12-31T05:12:09.562Z,1.52
2017-12-31T05:13:09.564Z,1.50
2017-12-31T05:14:09.578Z,1.44
2017-12-31T05:15:09.582Z,1.41
2017-12-31T05:16:09.591Z,1.37
2017-12-31T05:17:09.627Z,1.42
2017-12-31T05:18:09.601Z,1.40
2017-12-31T05:19:09.613Z,1.37
2017-12-31T05:20:09.620Z,1.34
2017-12-31T05:21:09.628Z,1.33
2017-12-31T05:22:09.635Z,1.24
2017-12-31T05:23:09.642Z,1.27
2017-12-31T05:24:09.655Z,1.26
2017-12-31T05:25:09.659Z,1.20
2017-12-31T05:26:09.658Z,1.08
2017-12-31T05:27:09.664Z,1.09
2017-12-31T05:28:09.679Z,1.09
2017-12-31T05:29:09.684Z,1.02
2017-12-31T05:30:09.685Z,1.05
2017-12-31T05:31:09.692Z,1.00
2017-12-31T05:32:09.702Z,1.02
2017-12-31T05:33:09.714Z,1.08
2017-12-31T05:34:09.719Z,1.05
2017-12-31T05:35:09.725Z,1.06
2017-12-31T05:36:09.733Z,1.11
2017-12-31T05:37:09.740Z,1.04
2017-12-31T05:38:09.739Z,1.12
2017-12-31T05:39:09.752Z,1.15
2017-12-31T05:40:09.759Z,1.18
2017-12-31T05:41:09.767Z,1.11
2017-12-31T05:42:09.768Z,1.15
2017-12-31T05:43:09.778Z,1.09
2017-12-31T05:44:09.786Z,1.14
2017-12-31T05:45:09.788Z,1.18
2017-12-31T05:46:09.799Z,1.14
2017-12-31T05:47:09.809Z,1.11
2017-12-31T05:48:09.814Z,1.12
2017-12-31T05:49:09.821Z,1.18
2017-12-31T05:50:09.821Z,1.15
2017-12-31T05:51:09.828Z,1.11
2017-12-31T05:52:09.835Z,1.15
2017-12-31T05:53:09.848Z,1.20
2017-12-31T05:54:09.847Z,1.18
2017-12-31T05:55:09.861Z,1.14
2017-12-31T05:56:09.869Z,1.26
2017-12-31T05:57:09.869Z,1.18
2017-12-31T05:58:09.884Z,1.24
2017-12-31T05:59:09.882Z,1.27
2017-12-31T06:00:09.895Z,1.26
2017-12-31T06:01:09.896Z,1.32
2017-12-31T06:02:09.902Z,1.41
2017-12-31T06:03:09.908Z,1.37
2017-12-31T06:04:09.916Z,1.41
2017-12-31T06:05:09.928Z,1.48
2017-12-31T06:06:09.927Z,1.48
2017-12-31T06:07:09.936Z,1.52
2017-12-31T06:08:09.950Z,1.60
2017-12-31T06:09:09.956Z,1.54
2017-12-31T06:10:09.963Z,1.55
2017-12-31T06:11:09.968Z,1.59
2017-12-31T06:12:09.976Z,1.60
2017-12-31T06:13:09.982Z,1.59
2017-12-31T06:14:09.987Z,1.58
2017-12-31T06:15:09.990Z,1.55
2017-12-31T06:16:10.003Z,1.62
2017-12-31T06:17:10.011Z,1.55
2017-12-31T06:18:10.018Z,1.55
2017-12-31T06:19:10.018Z,1.47
2017-12-31T06:20:10.028Z,1.45
2017-12-31T06:21:10.039Z,1.45
2017-12-31T06:22:10.040Z,1.42
2017-12-31T06:23:10.048Z,1.40
2017-12-31T06:24:10.059Z,1.37
2017-12-31T06:25:10.067Z,1.40
2017-12-31T06:26:10.068Z,1.29
2017-12-31T06:27:10.080Z,1.33
2017-12-31T06:28:10.086Z,1.23
2017-12-31T06:29:10.090Z,1.24
2017-12-31T06:30:10.097Z,1.22
2017-12-31T06:31:10.107Z,1.29
2017-12-31T06:32:10.116Z,1.27
2017-12-31T06:33:10.116Z,1.23
2017-12-31T06:34:10.129Z,1.26
2017-12-31T06:35:10.137Z,1.24
2017-12-31T06:36:10.143Z,1.18
2017-12-31T06:37:10.145Z,1.24
2017-12-31T06:38:10.157Z,1.16
2017-12-31T06:39:10.168Z,1.11
2017-12-31T06:40:10.169Z,1.12
2017-12-31T06:41:10.175Z,1.04
2017-12-31T06:42:10.182Z,1.12
2017-12-31T06:43:10.188Z,1.15
2017-12-31T06:44:10.193Z,1.11
2017-12-31T06:45:10.198Z,1.09
2017-12-31T06:46:10.208Z,1.00
2017-12-31T06:47:10.210Z,0.96
2017-12-31T06:48:10.222Z,0.98
2017-12-31T06:49:10.229Z,0.90
2017-12-31T06:50:10.237Z,0.97
2017-12-31T06:51:10.236Z,0.88
2017-12-31T06:52:10.248Z,0.84
2017-12-31T06:53:10.248Z,0.86
2017-12-31T06:54:10.261Z,0.90
2017-12-31T06:55:10.260Z,0.84
2017-12-31T06:56:10.270Z,0.86
2017-12-31T06:57:10.275Z,0.87
2017-12-31T06:58:10.280Z,0.91
2017-12-31T06:59:10.293Z,0.86
2017-12-31T07:00:10.298Z,0.78
2017-12-31T07:01:10.301Z,0.83
2017-12-31T07:02:10.311Z,0.80
2017-12-31T07:03:10.313Z,0.76
2017-12-31T07:04:10.320Z,0.70
2017-12-31T07:05:10.330Z,0.68
2017-12-31T07:06:10.332Z,0.69
2017-12-31T07:07:10.342Z,0.72
2017-12-31T07:08:10.344Z,0.65
2017-12-31T07:09:10.351Z,0.65
2017-12-31T07:10:10.355Z,0.66
2017-12-31T07:11:10.363Z,0.65
2017-12-31T07:12:10.377Z,0.72
2017-12-31T07:13:10.376Z,0.65
2017-12-31T07:14:10.390Z,0.66
2017-12-31T07:15:10.394Z,0.62
2017-12-31T07:16:10.394Z,0.66
2017-12-31T07:17:10.419Z,0.69
2017-12-31T07:18:10.408Z,0.68
2017-12-31T07:19:10.418Z,0.66
2017-12-31T07:20:10.423Z,0.69
2017-12-31T07:21:10.431Z,0.70
2017-12-31T07:22:10.432Z,0.60
2017-12-31T07:23:10.444Z,0.66
2017-12-31T07:24:10.445Z,0.62
2017-12-31T07:25:10.451Z,0.75
2017-12-31T07:26:10.462Z,0.73
2017-12-31T07:27:10.470Z,0.65
2017-12-31T07:28:10.546Z,0.61
2017-12-31T07:29:10.476Z,0.61
2017-12-31T07:30:10.488Z,0.66
2017-12-31T07:31:10.495Z,0.75
2017-12-31T07:32:10.495Z,0.66
2017-12-31T07:33:10.502Z,0.69
2017-12-31T07:34:10.508Z,0.65
2017-12-31T07:35:10.518Z,0.70
2017-12-31T07:36:10.527Z,0.65
2017-12-31T07:37:10.526Z,0.70
2017-12-31T07:38:10.541Z,0.58
2017-12-31T07:39:10.542Z,0.60
2017-12-31T07:40:10.546Z,0.68
2017-12-31T07:41:10.554Z,0.66
2017-12-31T07:42:10.557Z,0.72
2017-12-31T07:43:10.567Z,0.69
2017-12-31T07:44:10.569Z,0.68
2017-12-31T07:45:10.576Z,0.66
2017-12-31T07:46:10.584Z,0.70
2017-12-31T07:47:10.589Z,0.65
2017-12-31T07:48:10.602Z,0.69
2017-12-31T07:49:10.606Z,0.68
2017-12-31T07:50:10.612Z,0.79
2017-12-31T07:51:10.618Z,0.75
2017-12-31T07:52:10.629Z,0.72
2017-12-31T07:53:10.625Z,0.84
2017-12-31T07:54:10.631Z,0.83
2017-12-31T07:55:10.646Z,0.88
2017-12-31T07:56:10.650Z,0.83
2017-12-31T07:57:10.657Z,0.84
2017-12-31T07:58:10.658Z,0.94
2017-12-31T07:59:10.671Z,1.00
2017-12-31T08:00:10.679Z,0.96
2017-12-31T08:01:10.686Z,1.04
2017-12-31T08:02:10.684Z,1.06
2017-12-31T08:03:10.696Z,1.05
2017-12-31T08:04:10.700Z,1.04
2017-12-31T08:05:10.706Z,0.98
2017-12-31T08:06:10.709Z,1.04
2017-12-31T08:07:10.719Z,1.05
2017-12-31T08:08:10.720Z,1.11
2017-12-31T08:09:10.737Z,1.00
2017-12-31T08:10:10.783Z,1.08
2017-12-31T08:11:10.812Z,1.08
2017-12-31T08:12:10.752Z,1.04
2017-12-31T08:13:10.757Z,1.12
2017-12-31T08:14:10.828Z,1.12
2017-12-31T08:15:10.769Z,1.08
2017-12-31T08:16:10.771Z,1.11
2017-12-31T08:17:10.779Z,1.14
2017-12-31T08:18:10.787Z,1.15
2017-12-31T08:19:10.798Z,1.11
2017-12-31T08:20:10.800Z,1.12
2017-12-31T08:21:10.806Z,1.04
2017-12-31T08:22:10.818Z,1.02
2017-12-31T08:23:10.820Z,1.02
2017-12-31T08:24:10.827Z,0.91
2017-12-31T08:25:10.839Z,0.87
2017-12-31T08:26:10.840Z,0.83
2017-12-31T08:27:10.846Z,0.94
2017-12-31T08:28:10.855Z,0.98
2017-12-31T08:29:10.859Z,0.94
2017-12-31T08:30:11.023Z,1.00
2017-12-31T08:31:10.872Z,1.08
2017-12-31T08:32:10.884Z,0.98
2017-12-31T08:33:10.885Z,1.00
2017-12-31T08:34:10.893Z,1.05
2017-12-31T08:35:10.899Z,1.05
2017-12-31T08:36:10.908Z,1.04
2017-12-31T08:37:10.912Z,1.11
2017-12-31T08:38:10.919Z,1.04
2017-12-31T08:39:10.925Z,1.14
2017-12-31T08:40:10.937Z,1.16
2017-12-31T08:41:10.938Z,1.12
2017-12-31T08:42:10.958Z,1.22
2017-12-31T08:43:10.952Z,1.40
2017-12-31T08:44:10.963Z,1.50
2017-12-31T08:45:10.983Z,1.55
2017-12-31T08:46:10.972Z,1.83
2017-12-31T08:47:10.986Z,1.91
2017-12-31T08:48:10.988Z,2.17
2017-12-31T08:49:11.004Z,2.27
2017-12-31T08:50:11.001Z,2.46
2017-12-31T08:51:11.015Z,2.63
2017-12-31T08:52:11.022Z,2.87
2017-12-31T08:53:11.026Z,3.02
2017-12-31T08:54:11.040Z,3.14
2017-12-31T08:55:11.047Z,3.28
2017-12-31T08:56:11.054Z,3.32
2017-12-31T08:57:11.062Z,3.54
2017-12-31T08:58:11.066Z,3.62
2017-12-31T08:59:11.082Z,3.84
2017-12-31T09:00:11.085Z,4.04
2017-12-31T09:01:11.093Z,4.11
2017-12-31T09:02:11.102Z,4.30
2017-12-31T09:03:11.114Z,4.34
2017-12-31T09:04:11.124Z,4.45
2017-12-31T09:05:11.138Z,4.67
2017-12-31T09:06:11.141Z,4.80
2017-12-31T09:07:11.152Z,5.02
2017-12-31T09:08:11.167Z,5.21
2017-12-31T09:09:11.174Z,5.35
2017-12-31T09:10:11.187Z,5.46
2017-12-31T09:11:11.195Z,5.38
2017-12-31T09:12:11.199Z,5.24
2017-12-31T09:13:11.207Z,5.06
2017-12-31T09:14:11.219Z,4.78
2017-12-31T09:15:11.232Z,4.72
2017-12-31T09:16:11.247Z,4.75
2017-12-31T09:17:11.247Z,4.91
2017-12-31T09:18:11.265Z,5.09
2017-12-31T09:19:11.275Z,5.46
2017-12-31T09:20:11.277Z,5.71
2017-12-31T09:21:11.293Z,5.64
2017-12-31T09:22:11.305Z,5.51
2017-12-31T09:23:11.322Z,5.76
2017-12-31T09:24:11.322Z,5.82
2017-12-31T09:25:11.334Z,5.51
2017-12-31T09:26:11.345Z,5.13
2017-12-31T09:27:11.356Z,4.75
2017-12-31T09:28:11.363Z,4.70
2017-12-31T09:29:11.376Z,4.85
2017-12-31T09:30:11.388Z,5.15
2017-12-31T09:31:11.391Z,5.38
2017-12-31T09:32:11.403Z,5.65
2017-12-31T09:33:11.418Z,6.01
2017-12-31T09:34:11.428Z,6.33
2017-12-31T09:35:11.443Z,6.49
2017-12-31T09:36:11.451Z,6.22
2017-12-31T09:37:11.464Z,5.93
2017-12-31T09:38:11.465Z,5.99
2017-12-31T09:39:11.477Z,5.90
2017-12-31T09:40:11.492Z,5.74
2017-12-31T09:41:11.503Z,5.71
2017-12-31T09:42:11.512Z,5.63
2017-12-31T09:43:11.525Z,5.46
2017-12-31T09:44:11.538Z,5.63
2017-12-31T09:45:11.552Z,5.78
2017-12-31T09:46:11.559Z,5.72
2017-12-31T09:47:11.568Z,5.45
2017-12-31T09:48:11.582Z,5.24
2017-12-31T09:49:11.585Z,5.20
2017-12-31T09:50:11.600Z,5.58
2017-12-31T09:51:11.605Z,5.85
2017-12-31T09:52:11.621Z,6.18
2017-12-31T09:53:11.629Z,6.59
2017-12-31T09:54:11.639Z,6.84
2017-12-31T09:55:11.654Z,7.25
2017-12-31T09:56:11.661Z,7.45
2017-12-31T09:57:11.674Z,7.74
2017-12-31T09:58:11.684Z,7.61
2017-12-31T09:59:11.697Z,7.35
2017-12-31T10:00:11.707Z,6.74
2017-12-31T10:01:11.720Z,6.36
2017-12-31T10:02:11.735Z,6.85
2017-12-31T10:03:11.747Z,7.37
2017-12-31T10:04:11.761Z,7.72
2017-12-31T10:05:11.767Z,8.02
2017-12-31T10:06:11.776Z,8.41
2017-12-31T10:07:11.793Z,8.44
2017-12-31T10:08:11.799Z,8.65
2017-12-31T10:09:11.819Z,7.98
2017-12-31T10:10:11.827Z,7.80
2017-12-31T10:11:11.840Z,7.89
2017-12-31T10:12:11.854Z,7.97
2017-12-31T10:13:11.873Z,8.40
2017-12-31T10:14:11.879Z,8.30
2017-12-31T10:15:11.891Z,8.33
2017-12-31T10:16:11.903Z,8.15
2017-12-31T10:17:11.916Z,8.48
2017-12-31T10:18:11.930Z,8.56
2017-12-31T10:19:11.939Z,8.89
2017-12-31T10:20:11.953Z,9.20
2017-12-31T10:21:11.960Z,9.66
2017-12-31T10:22:11.979Z,10.02
2017-12-31T10:23:11.992Z,10.36
2017-12-31T10:24:12.007Z,10.81
2017-12-31T10:25:12.018Z,11.06
2017-12-31T10:26:12.034Z,11.42
2017-12-31T10:27:12.044Z,11.61
2017-12-31T10:28:12.065Z,11.76
2017-12-31T10:29:12.072Z,12.04
2017-12-31T10:30:12.088Z,11.83
2017-12-31T10:31:12.099Z,11.39
2017-12-31T10:32:12.117Z,11.40
2017-12-31T10:33:12.127Z,11.49
2017-12-31T10:34:12.142Z,11.69
2017-12-31T10:35:12.156Z,11.86
2017-12-31T10:36:12.168Z,12.04
2017-12-31T10:37:12.187Z,12.16
2017-12-31T10:38:12.201Z,11.86
2017-12-31T10:39:12.214Z,10.96
2017-12-31T10:40:12.224Z,10.94
2017-12-31T10:41:12.241Z,11.03
2017-12-31T10:42:12.260Z,11.51
2017-12-31T10:43:12.275Z,11.94
2017-12-31T10:44:12.342Z,10.67
2017-12-31T10:45:12.298Z,10.02
2017-12-31T10:46:12.320Z,10.27
2017-12-31T10:47:12.334Z,10.56
2017-12-31T10:48:12.346Z,11.11
2017-12-31T10:49:12.364Z,11.54
2017-12-31T10:50:12.381Z,11.91
2017-12-31T10:51:12.400Z,12.01
2017-12-31T10:52:12.410Z,11.44
2017-12-31T10:53:12.424Z,11.83
2017-12-31T10:54:12.442Z,11.99
2017-12-31T10:55:12.460Z,12.32
2017-12-31T10:56:12.474Z,12.57
2017-12-31T10:57:12.495Z,12.95
2017-12-31T10:58:12.500Z,13.07
2017-12-31T10:59:12.522Z,13.15
2017-12-31T11:00:12.535Z,13.19
2017-12-31T11:01:12.552Z,13.28
2017-12-31T11:02:12.563Z,13.30
2017-12-31T11:03:12.584Z,13.36
2017-12-31T11:04:12.598Z,13.63
2017-12-31T11:05:12.617Z,13.75
2017-12-31T11:06:12.638Z,13.88
2017-12-31T11:07:12.644Z,13.87
2017-12-31T11:08:12.669Z,13.73
2017-12-31T11:09:12.678Z,13.38
2017-12-31T11:10:12.697Z,13.08
2017-12-31T11:11:12.715Z,13.10
2017-12-31T11:12:12.734Z,13.14
2017-12-31T11:13:12.745Z,13.38
2017-12-31T11:14:12.767Z,12.86
2017-12-31T11:15:12.783Z,12.90
2017-12-31T11:16:12.802Z,13.08
2017-12-31T11:17:12.820Z,13.26
2017-12-31T11:18:12.830Z,13.45
2017-12-31T11:19:12.851Z,13.51
2017-12-31T11:20:12.869Z,13.64
2017-12-31T11:21:12.878Z,13.87
2017-12-31T11:22:12.896Z,14.04
2017-12-31T11:23:12.912Z,14.18
2017-12-31T11:24:12.932Z,14.24
2017-12-31T11:25:12.951Z,14.14
2017-12-31T11:26:12.969Z,14.18
2017-12-31T11:27:12.980Z,14.35
2017-12-31T11:28:13.006Z,14.33
2017-12-31T11:29:13.023Z,14.35
2017-12-31T11:30:13.036Z,14.28
2017-12-31T11:31:13.064Z,14.25
2017-12-31T11:32:13.075Z,13.73
2017-12-31T11:33:13.092Z,13.87
2017-12-31T11:34:13.105Z,13.96
2017-12-31T11:35:13.133Z,14.03
2017-12-31T11:36:13.138Z,14.18
2017-12-31T11:37:13.156Z,14.37
2017-12-31T11:38:13.174Z,14.60
2017-12-31T11:39:13.213Z,14.64
2017-12-31T11:40:13.212Z,14.78
2017-12-31T11:41:13.230Z,14.98
2017-12-31T11:42:13.253Z,15.01
2017-12-31T11:43:13.263Z,15.07
2017-12-31T11:44:13.283Z,15.21
2017-12-31T11:45:13.308Z,15.35
2017-12-31T11:46:13.326Z,15.60
2017-12-31T11:47:13.336Z,15.71
2017-12-31T11:48:13.366Z,15.71
2017-12-31T11:49:13.384Z,15.46
2017-12-31T11:50:13.414Z,14.47
2017-12-31T11:51:13.416Z,14.43
2017-12-31T11:52:13.438Z,14.54
2017-12-31T11:53:13.458Z,14.73
2017-12-31T11:54:13.475Z,14.17
2017-12-31T11:55:13.493Z,12.45
2017-12-31T11:56:13.507Z,12.75
2017-12-31T11:57:13.527Z,13.01
2017-12-31T11:58:13.552Z,13.36
2017-12-31T11:59:13.572Z,13.48
2017-12-31T12:00:13.589Z,13.85
2017-12-31T12:01:13.601Z,14.04
2017-12-31T12:02:13.622Z,14.10
2017-12-31T12:03:13.650Z,14.21
2017-12-31T12:04:13.693Z,14.29
2017-12-31T12:05:13.688Z,13.69
2017-12-31T12:06:13.702Z,13.48
2017-12-31T12:07:13.719Z,13.05
2017-12-31T12:08:13.747Z,12.89
2017-12-31T12:09:13.750Z,12.77
2017-12-31T12:10:13.774Z,12.67
2017-12-31T12:11:13.805Z,12.54
2017-12-31T12:12:13.807Z,12.54
2017-12-31T12:13:13.823Z,12.38
2017-12-31T12:14:13.851Z,12.47
2017-12-31T12:15:13.868Z,12.27
2017-12-31T12:16:13.882Z,11.90
2017-12-31T12:17:13.905Z,11.95
2017-12-31T12:18:13.914Z,12.13
2017-12-31T12:19:13.940Z,12.28
2017-12-31T12:20:13.956Z,12.13
2017-12-31T12:21:13.971Z,12.09
2017-12-31T12:22:13.992Z,12.14
2017-12-31T12:23:14.012Z,12.32
2017-12-31T12:24:14.024Z,12.57
2017-12-31T12:25:14.046Z,12.79
2017-12-31T12:26:14.063Z,13.04
2017-12-31T12:27:14.083Z,13.07
2017-12-31T12:28:14.099Z,13.12
2017-12-31T12:29:14.122Z,13.25
2017-12-31T12:30:14.137Z,13.30
2017-12-31T12:31:14.153Z,13.59
2017-12-31T12:32:14.171Z,13.77
2017-12-31T12:33:14.188Z,13.99
2017-12-31T12:34:14.207Z,13.95
2017-12-31T12:35:14.222Z,13.67
2017-12-31T12:36:14.245Z,13.92
2017-12-31T12:37:14.261Z,14.18
2017-12-31T12:38:14.293Z,14.55
2017-12-31T12:39:14.302Z,14.64
2017-12-31T12:40:14.320Z,14.96
2017-12-31T12:41:14.343Z,15.16
2017-12-31T12:42:15.364Z,15.25
2017-12-31T12:43:14.370Z,15.57
2017-12-31T12:44:14.396Z,15.64
2017-12-31T12:45:14.403Z,15.59
2017-12-31T12:46:14.425Z,15.53
2017-12-31T12:47:14.452Z,15.59
2017-12-31T12:48:14.466Z,14.68
2017-12-31T12:49:14.487Z,14.83
2017-12-31T12:50:14.498Z,14.88
2017-12-31T12:51:14.533Z,15.02
2017-12-31T12:52:14.546Z,15.39
2017-12-31T12:53:14.593Z,15.34
2017-12-31T12:54:14.604Z,15.17
2017-12-31T12:55:14.604Z,14.95
2017-12-31T12:56:14.864Z,14.64
2017-12-31T12:57:14.884Z,14.57
2017-12-31T12:58:14.664Z,14.45
2017-12-31T12:59:14.709Z,14.28
2017-12-31T13:00:14.723Z,14.25
2017-12-31T13:01:14.741Z,13.88
2017-12-31T13:02:14.750Z,14.02
2017-12-31T13:03:14.780Z,14.45
2017-12-31T13:04:14.781Z,15.07
2017-12-31T13:05:14.805Z,15.07
2017-12-31T13:06:14.821Z,15.35
2017-12-31T13:07:14.860Z,15.39
2017-12-31T13:08:14.891Z,15.76
2017-12-31T13:09:14.905Z,15.84
2017-12-31T13:10:18.493Z,15.29
2017-12-31T13:11:16.621Z,15.11
2017-12-31T13:12:14.954Z,15.35